Time;durP1;ratioP1;P1;durP2;ratioP2;P2;SDS_P1;SDS_P2;PMS_P1;PMS_P2;Temp;Humidity;BMP_temperature;BMP_pressure;BME280_temperature;BME280_humidity;BME280_pressure;Samples;Min_cycle;Max_cycle;Signal;HPM_P1;HPM_P2
2021/07/14 00:02:29;;;;;;;16.63;14.77;;;21.20;99.90;;;;;;5966050;39;20018;-74
2021/07/14 00:06:30;;;;;;;;;;;21.10;99.90;;;;;;5967533;39;20173;-76
2021/07/14 00:10:33;;;;;;;13.88;12.38;;;21.30;99.90;;;;;;5962722;39;19939;-76
2021/07/14 00:22:57;;;;;;;13.57;11.38;;;21.20;99.90;;;;;;5973315;39;20091;-73
2021/07/14 00:26:59;;;;;;;;;;;21.20;99.90;;;;;;5967952;39;20039;-74
2021/07/14 00:31:02;;;;;;;;;;;21.20;99.90;;;;;;5964540;39;19948;-73
2021/07/14 00:35:07;;;;;;;12.70;10.98;;;21.20;99.90;;;;;;5976530;39;19952;-76
2021/07/14 00:39:09;;;;;;;12.52;10.45;;;21.20;99.90;;;;;;5967993;39;20330;-74
2021/07/14 00:43:11;;;;;;;;;;;21.30;99.90;;;;;;5979441;39;20044;-74
2021/07/14 00:47:13;;;;;;;12.95;10.30;;;21.30;99.90;;;;;;5979496;39;19963;-75
2021/07/14 00:51:16;;;;;;;12.35;10.40;;;21.30;99.90;;;;;;5979880;39;20059;-76
2021/07/14 00:55:17;;;;;;;11.80;9.20;;;21.40;99.90;;;;;;5977324;39;20471;-77
2021/07/14 00:59:19;;;;;;;;;;;21.40;99.90;;;;;;5965427;39;20103;-76
2021/07/14 01:03:29;;;;;;;10.95;9.32;;;21.40;99.90;;;;;;5963324;39;19973;-77
2021/07/14 01:07:41;;;;;;;12.52;9.65;;;21.40;99.90;;;;;;5966812;39;20055;-76
2021/07/14 01:11:44;;;;;;;;;;;21.30;99.90;;;;;;5977362;39;20036;-77
2021/07/14 01:15:53;;;;;;;11.10;9.18;;;21.50;99.90;;;;;;5971802;39;21703;-77
2021/07/14 01:20:18;;;;;;;12.65;9.38;;;21.30;99.90;;;;;;5966231;39;20062;-76
2021/07/14 01:24:40;;;;;;;12.82;10.13;;;21.30;99.90;;;;;;5975782;39;20039;-74
2021/07/14 01:28:45;;;;;;;11.95;9.05;;;21.30;99.90;;;;;;5977583;39;20321;-75
2021/07/14 01:32:51;;;;;;;10.60;9.45;;;21.20;99.90;;;;;;5979155;39;20085;-75
2021/07/14 01:36:54;;;;;;;11.00;9.65;;;21.20;99.90;;;;;;5967254;39;20361;-76
2021/07/14 01:41:00;;;;;;;12.35;10.05;;;21.20;99.90;;;;;;5965727;39;20044;-73
2021/07/14 01:45:04;;;;;;;13.25;10.30;;;21.20;99.90;;;;;;5976367;39;20063;-74
2021/07/14 01:49:14;;;;;;;11.77;10.13;;;21.20;99.90;;;;;;5966465;39;20043;-74
2021/07/14 01:53:19;;;;;;;10.88;9.75;;;21.20;99.90;;;;;;5953311;39;20095;-77
2021/07/14 01:57:22;;;;;;;10.82;8.93;;;21.10;99.90;;;;;;5963396;39;20093;-77
2021/07/14 02:01:24;;;;;;;11.98;9.75;;;21.30;99.90;;;;;;5977781;39;20059;-76
2021/07/14 02:05:26;;;;;;;10.38;8.38;;;21.00;99.90;;;;;;5977037;39;20050;-78
2021/07/14 02:09:28;;;;;;;13.38;10.07;;;21.10;99.90;;;;;;5976439;39;20092;-78
2021/07/14 02:13:32;;;;;;;13.95;9.80;;;21.00;99.90;;;;;;5974338;39;20059;-77
2021/07/14 02:17:38;;;;;;;12.68;9.57;;;21.00;99.90;;;;;;5974269;39;20044;-76
2021/07/14 02:21:40;;;;;;;11.48;9.18;;;20.90;99.90;;;;;;5975604;39;20419;-76
2021/07/14 02:25:42;;;;;;;;;;;21.00;99.90;;;;;;5974250;39;20072;-75
2021/07/14 02:29:44;;;;;;;12.68;9.63;;;20.80;99.90;;;;;;5964411;39;19944;-77
2021/07/14 02:33:46;;;;;;;12.65;9.60;;;20.80;99.90;;;;;;5975240;39;20285;-77
2021/07/14 02:38:01;;;;;;;13.30;10.90;;;20.80;99.90;;;;;;5971980;39;20468;-76
2021/07/14 02:42:10;;;;;;;16.25;11.00;;;20.80;99.90;;;;;;5966009;39;20060;-76
2021/07/14 02:46:18;;;;;;;12.70;9.30;;;20.70;99.90;;;;;;5964244;39;20043;-76
2021/07/14 02:50:23;;;;;;;13.38;10.00;;;20.60;99.90;;;;;;5963945;39;20051;-75
2021/07/14 02:54:28;;;;;;;13.73;11.38;;;20.60;99.90;;;;;;5966234;39;20492;-76
2021/07/14 02:58:32;;;;;;;15.80;11.32;;;20.40;99.90;;;;;;5962224;39;20068;-76
2021/07/14 03:02:36;;;;;;;13.93;10.88;;;20.40;99.90;;;;;;5970674;39;20054;-76
2021/07/14 03:06:39;;;;;;;13.68;10.20;;;20.30;99.90;;;;;;5966885;39;20066;-76
2021/07/14 03:10:46;;;;;;;14.32;10.70;;;20.20;99.90;;;;;;5974742;39;20659;-77
2021/07/14 03:15:02;;;;;;;11.95;10.45;;;20.20;99.90;;;;;;5975488;39;20052;-76
2021/07/14 03:19:04;;;;;;;14.63;12.40;;;20.40;99.90;;;;;;5974618;39;20047;-74
2021/07/14 03:23:07;;;;;;;21.05;11.60;;;20.20;99.90;;;;;;5972745;39;20076;-74
2021/07/14 03:27:11;;;;;;;18.05;11.90;;;20.20;99.90;;;;;;5972403;39;20055;-74
2021/07/14 03:31:14;;;;;;;14.77;11.93;;;20.10;99.90;;;;;;5970457;39;20070;-74
2021/07/14 03:35:17;;;;;;;16.23;13.00;;;20.10;99.90;;;;;;5973927;39;20056;-73
2021/07/14 03:39:20;;;;;;;15.95;12.68;;;20.10;99.90;;;;;;5973050;39;20042;-74
2021/07/14 03:43:24;;;;;;;17.02;13.10;;;20.10;99.90;;;;;;5975492;39;20646;-77
2021/07/14 03:47:27;;;;;;;17.98;12.52;;;20.00;99.90;;;;;;5970780;39;20730;-76
2021/07/14 03:51:30;;;;;;;18.73;13.27;;;20.20;99.90;;;;;;5966085;39;20228;-77
2021/07/14 03:55:33;;;;;;;23.20;12.48;;;20.00;99.90;;;;;;5967512;39;20083;-77
2021/07/14 03:59:38;;;;;;;19.35;13.40;;;20.00;99.90;;;;;;5974780;39;20040;-76
2021/07/14 04:03:40;;;;;;;16.15;12.68;;;20.10;99.90;;;;;;5975504;39;20434;-77
2021/07/14 04:07:45;;;;;;;18.42;12.95;;;20.10;99.90;;;;;;5978190;39;20495;-77
2021/07/14 04:11:50;;;;;;;17.67;12.13;;;20.10;99.90;;;;;;5968255;39;20059;-77
2021/07/14 04:15:51;;;;;;;17.45;13.15;;;20.40;99.90;;;;;;5960439;39;20106;-75
2021/07/14 04:19:53;;;;;;;;;;;20.30;99.90;;;;;;5969110;39;20314;-74
2021/07/14 04:24:01;;;;;;;23.70;13.50;;;20.30;99.90;;;;;;5979337;39;20227;-75
2021/07/14 04:28:03;;;;;;;20.73;13.48;;;20.40;99.90;;;;;;5961053;39;20044;-75
2021/07/14 04:32:06;;;;;;;13.52;11.73;;;20.50;99.90;;;;;;5976658;39;20051;-74
2021/07/14 04:36:09;;;;;;;16.90;13.18;;;20.50;99.90;;;;;;5976129;39;20423;-74
2021/07/14 04:40:11;;;;;;;20.75;12.68;;;20.60;99.90;;;;;;5973816;39;20047;-79
2021/07/14 04:44:18;;;;;;;16.48;12.88;;;20.70;99.90;;;;;;5967773;39;20058;-75
2021/07/14 04:48:20;;;;;;;17.52;12.65;;;20.80;99.90;;;;;;5965271;39;20063;-70
2021/07/14 04:52:22;;;;;;;17.90;13.13;;;20.90;99.90;;;;;;5964530;39;20059;-70
2021/07/14 04:56:24;;;;;;;;;;;20.90;99.90;;;;;;5964758;39;20388;-70
2021/07/14 05:00:25;;;;;;;18.30;13.25;;;20.90;99.90;;;;;;5962038;39;19946;-70
2021/07/14 05:04:27;;;;;;;;;;;20.90;99.90;;;;;;5956846;39;20083;-69
2021/07/14 05:08:29;;;;;;;14.93;13.32;;;21.00;99.90;;;;;;5944628;39;19977;-69
2021/07/14 05:12:31;;;;;;;;;;;20.90;99.90;;;;;;5953786;39;21848;-70
2021/07/14 05:16:32;;;;;;;21.25;13.15;;;20.90;99.90;;;;;;5951321;39;20101;-69
2021/07/14 05:20:34;;;;;;;;;;;21.00;99.90;;;;;;5948168;39;20125;-70
2021/07/14 05:24:36;;;;;;;20.88;12.75;;;20.80;99.90;;;;;;5944972;39;19944;-70
2021/07/14 05:28:38;;;;;;;;;;;20.80;99.90;;;;;;5943588;39;20606;-70
2021/07/14 05:32:39;;;;;;;17.02;11.63;;;20.80;99.90;;;;;;5941044;39;20018;-70
2021/07/14 05:36:41;;;;;;;20.25;12.90;;;20.80;99.90;;;;;;5945252;39;20083;-70
2021/07/14 05:40:43;;;;;;;;;;;20.90;99.90;;;;;;5946854;39;20052;-70
2021/07/14 05:44:45;;;;;;;18.27;11.98;;;20.90;99.90;;;;;;5945141;39;19944;-70
2021/07/14 05:48:47;;;;;;;;;;;20.90;99.90;;;;;;5940272;39;20033;-70
2021/07/14 05:52:49;;;;;;;18.42;10.75;;;21.10;99.90;;;;;;5944641;39;20320;-69
2021/07/14 05:56:51;;;;;;;16.08;10.88;;;21.10;99.90;;;;;;5945453;39;20040;-70
2021/07/14 06:00:53;;;;;;;14.50;10.25;;;21.20;99.90;;;;;;5942441;39;20049;-70
2021/07/14 06:04:55;;;;;;;;;;;21.20;99.90;;;;;;5948184;39;20056;-70
2021/07/14 06:08:58;;;;;;;13.60;10.52;;;21.30;99.90;;;;;;5943016;39;19987;-69
2021/07/14 06:13:00;;;;;;;16.15;10.07;;;21.40;99.90;;;;;;5942086;39;20062;-70
2021/07/14 06:17:01;;;;;;;;;;;21.50;99.90;;;;;;5946039;39;20412;-71
2021/07/14 06:21:04;;;;;;;15.43;10.52;;;21.60;99.90;;;;;;5944008;39;19951;-71
2021/07/14 06:25:08;;;;;;;15.73;10.60;;;21.70;99.90;;;;;;5943410;39;20339;-69
2021/07/14 06:29:14;;;;;;;16.65;11.52;;;21.70;99.90;;;;;;5943380;39;20059;-70
2021/07/14 06:33:16;;;;;;;15.13;9.63;;;21.60;99.90;;;;;;5943527;39;20442;-69
2021/07/14 06:37:18;;;;;;;16.10;9.98;;;21.70;99.90;;;;;;5941640;39;20621;-69
2021/07/14 06:41:22;;;;;;;;;;;21.80;99.90;;;;;;5941171;39;20154;-69
2021/07/14 06:45:26;;;;;;;14.73;9.90;;;21.90;99.90;;;;;;5941765;39;20291;-70
2021/07/14 06:49:31;;;;;;;15.27;10.00;;;22.10;99.90;;;;;;5943332;39;20046;-70
2021/07/14 06:53:33;;;;;;;10.95;8.38;;;22.30;99.90;;;;;;5943602;39;20048;-70
2021/07/14 06:57:37;;;;;;;17.63;9.43;;;22.50;99.90;;;;;;5942387;39;20056;-70
2021/07/14 07:01:38;;;;;;;12.93;9.20;;;22.60;99.90;;;;;;5941436;39;20055;-69
2021/07/14 07:05:40;;;;;;;12.05;9.20;;;22.90;99.90;;;;;;5947887;39;20059;-70
2021/07/14 07:09:44;;;;;;;;;;;22.90;99.90;;;;;;5943714;39;20125;-69
2021/07/14 07:13:46;;;;;;;11.27;8.75;;;23.00;99.90;;;;;;5945071;39;19940;-70
2021/07/14 07:17:48;;;;;;;13.15;8.75;;;23.20;99.90;;;;;;5940665;39;20083;-70
2021/07/14 07:21:50;;;;;;;12.05;7.95;;;23.20;99.90;;;;;;5940692;39;20404;-70
2021/07/14 07:25:54;;;;;;;11.13;8.07;;;23.40;99.60;;;;;;5944171;39;20036;-70
2021/07/14 07:29:56;;;;;;;11.05;8.27;;;23.50;99.50;;;;;;5931979;39;20142;-71
2021/07/14 07:33:58;;;;;;;10.77;7.82;;;23.50;99.50;;;;;;5934193;39;20197;-70
2021/07/14 07:38:00;;;;;;;9.43;7.75;;;23.50;99.60;;;;;;5942354;39;20076;-70
2021/07/14 07:42:03;;;;;;;10.45;8.15;;;23.60;99.50;;;;;;5942229;39;20050;-70
2021/07/14 07:46:05;;;;;;;12.98;8.15;;;23.50;99.40;;;;;;5942695;39;20160;-70
2021/07/14 07:50:09;;;;;;;9.13;7.30;;;23.50;99.40;;;;;;5940997;39;20199;-70
2021/07/14 07:54:11;;;;;;;10.48;7.63;;;23.40;99.50;;;;;;5942236;39;20149;-70
2021/07/14 07:58:14;;;;;;;9.68;8.68;;;23.30;99.70;;;;;;5937527;39;20044;-70
2021/07/14 08:02:16;;;;;;;11.85;8.38;;;23.40;99.80;;;;;;5930454;39;20064;-70
2021/07/14 08:06:18;;;;;;;12.10;8.93;;;23.10;99.80;;;;;;5951946;39;20407;-70
2021/07/14 08:10:20;;;;;;;11.18;8.68;;;23.30;99.80;;;;;;5939040;39;20046;-71
2021/07/14 08:14:21;;;;;;;11.27;8.18;;;23.40;99.70;;;;;;5938645;39;20047;-70
2021/07/14 08:18:24;;;;;;;10.07;8.27;;;23.50;99.80;;;;;;5942807;39;20119;-70
2021/07/14 08:22:26;;;;;;;11.88;8.23;;;23.60;99.60;;;;;;5942333;39;20411;-70
2021/07/14 08:26:27;;;;;;;11.35;7.82;;;23.70;99.40;;;;;;5942228;39;20435;-70
2021/07/14 08:30:29;;;;;;;11.10;8.10;;;23.80;99.30;;;;;;5936718;39;20052;-70
2021/07/14 08:34:31;;;;;;;11.82;7.72;;;23.90;99.30;;;;;;5941296;39;20060;-69
2021/07/14 08:38:33;;;;;;;9.75;7.65;;;23.90;98.90;;;;;;5939964;39;20056;-70
2021/07/14 08:42:36;;;;;;;9.10;7.38;;;23.90;99.00;;;;;;5940072;39;20165;-70
2021/07/14 08:46:38;;;;;;;9.93;7.80;;;23.90;99.00;;;;;;5936702;39;20044;-71
2021/07/14 08:50:44;;;;;;;8.93;7.35;;;24.00;99.00;;;;;;5925843;39;20047;-70
2021/07/14 08:54:46;;;;;;;10.40;8.27;;;24.10;98.80;;;;;;5943470;39;20048;-71
2021/07/14 08:58:48;;;;;;;8.57;7.00;;;24.10;98.60;;;;;;5934241;39;20106;-71
2021/07/14 09:02:50;;;;;;;9.20;8.00;;;24.20;98.50;;;;;;5924478;39;20052;-70
2021/07/14 09:06:52;;;;;;;8.77;6.32;;;24.20;98.60;;;;;;5940244;39;20037;-70
2021/07/14 09:10:55;;;;;;;9.10;6.00;;;24.20;97.80;;;;;;5941742;39;20602;-69
2021/07/14 09:14:56;;;;;;;11.27;6.68;;;24.20;97.70;;;;;;5942828;39;20048;-68
2021/07/14 09:19:12;;;;;;;8.07;6.82;;;24.20;97.70;;;;;;5940771;39;20050;-68
2021/07/14 09:23:17;;;;;;;9.75;6.60;;;24.20;96.80;;;;;;5937646;39;20064;-68
2021/07/14 09:27:35;;;;;;;7.13;6.40;;;24.10;97.60;;;;;;5937732;39;20084;-68
2021/07/14 09:31:44;;;;;;;10.13;6.53;;;24.10;97.40;;;;;;5943470;39;20276;-69
2021/07/14 09:35:50;;;;;;;10.23;6.63;;;24.10;97.30;;;;;;5937776;39;20256;-69
2021/07/14 09:39:52;;;;;;;10.30;6.80;;;24.00;97.50;;;;;;5952084;39;20425;-68
2021/07/14 09:43:53;;;;;;;8.60;6.63;;;24.10;97.70;;;;;;5939638;39;20068;-68
2021/07/14 09:47:58;;;;;;;8.38;6.55;;;24.20;97.70;;;;;;5943709;39;20141;-68
2021/07/14 09:52:06;;;;;;;7.13;5.93;;;24.60;97.30;;;;;;5944242;39;20548;-69
2021/07/14 09:56:15;;;;;;;9.65;6.13;;;24.90;96.90;;;;;;5936462;39;20051;-69
2021/07/14 10:00:18;;;;;;;10.05;6.80;;;25.30;96.10;;;;;;5946201;39;20095;-68
2021/07/14 10:04:37;;;;;;;7.88;5.05;;;25.60;95.60;;;;;;5942061;39;20428;-68
2021/07/14 10:08:40;;;;;;;7.85;5.93;;;25.80;95.30;;;;;;5936031;39;20066;-69
2021/07/14 10:12:42;;;;;;;8.98;5.70;;;25.90;95.10;;;;;;5922878;39;20149;-69
2021/07/14 10:16:51;;;;;;;8.63;5.40;;;26.10;94.60;;;;;;5930770;39;20078;-69
2021/07/14 10:20:54;;;;;;;8.07;6.25;;;26.20;94.40;;;;;;5932436;39;20081;-69
2021/07/14 10:24:56;;;;;;;7.90;5.85;;;26.40;94.40;;;;;;5954068;39;20478;-69
2021/07/14 10:28:59;;;;;;;9.27;5.90;;;26.50;94.20;;;;;;5946431;39;20051;-69
2021/07/14 10:33:01;;;;;;;7.00;5.13;;;26.40;94.30;;;;;;5953362;39;20054;-68
2021/07/14 10:37:05;;;;;;;7.88;5.93;;;26.50;94.70;;;;;;5953987;39;20389;-68
2021/07/14 10:41:07;;;;;;;6.55;5.05;;;26.60;94.80;;;;;;5959136;39;20103;-69
2021/07/14 10:45:11;;;;;;;7.53;5.78;;;26.80;94.30;;;;;;5959749;39;20573;-68
2021/07/14 10:49:13;;;;;;;7.00;4.90;;;26.70;93.60;;;;;;5949054;39;20053;-68
2021/07/14 10:53:17;;;;;;;7.50;5.15;;;26.80;93.90;;;;;;5952544;39;20100;-68
2021/07/14 10:57:23;;;;;;;6.35;5.00;;;26.80;93.50;;;;;;5945652;39;20040;-68
2021/07/14 11:01:45;;;;;;;9.27;4.95;;;26.90;93.30;;;;;;5953293;39;20048;-69
2021/07/14 11:05:47;;;;;;;7.47;5.28;;;27.00;91.30;;;;;;5953766;39;20148;-69
2021/07/14 11:09:50;;;;;;;5.72;4.40;;;27.10;93.00;;;;;;5941859;39;20052;-69
2021/07/14 11:14:11;;;;;;;8.38;5.03;;;27.10;92.60;;;;;;5946684;39;20053;-68
2021/07/14 11:18:33;;;;;;;6.05;5.00;;;27.10;91.00;;;;;;5937112;39;20043;-69
2021/07/14 11:22:45;;;;;;;6.43;5.13;;;27.30;90.50;;;;;;5954221;39;20367;-68
2021/07/14 11:26:46;;;;;;;5.18;4.25;;;27.40;92.20;;;;;;5940981;39;20040;-69
2021/07/14 11:30:51;;;;;;;6.72;4.70;;;27.50;92.00;;;;;;5945316;39;20052;-67
2021/07/14 11:35:08;;;;;;;7.03;4.97;;;27.60;91.70;;;;;;5952718;39;20056;-68
2021/07/14 11:39:27;;;;;;;9.15;4.82;;;28.40;90.20;;;;;;5956605;39;20361;-68
2021/07/14 11:43:40;;;;;;;5.78;4.50;;;28.00;87.90;;;;;;5956317;39;20427;-68
2021/07/14 11:47:42;;;;;;;6.75;5.20;;;28.10;87.40;;;;;;5939522;39;20051;-68
2021/07/14 11:51:44;;;;;;;6.30;4.80;;;28.20;91.40;;;;;;5944705;39;20335;-68
2021/07/14 11:56:14;;;;;;;5.55;4.70;;;28.30;90.80;;;;;;5945266;39;20043;-68
2021/07/14 12:00:17;;;;;;;5.60;4.60;;;28.50;90.10;;;;;;5956608;39;20054;-68
2021/07/14 12:04:24;;;;;;;4.70;3.80;;;28.60;90.40;;;;;;5945859;39;20056;-69
2021/07/14 12:08:36;;;;;;;6.20;4.88;;;28.60;90.00;;;;;;5941342;39;20307;-69
2021/07/14 12:12:45;;;;;;;5.90;4.93;;;28.60;85.50;;;;;;5939578;39;20051;-69
2021/07/14 12:16:52;;;;;;;7.03;4.65;;;28.70;90.00;;;;;;5952512;39;20095;-69
2021/07/14 12:20:54;;;;;;;6.20;4.68;;;28.80;89.80;;;;;;5931901;39;22028;-69
2021/07/14 12:25:12;;;;;;;6.40;5.00;;;28.80;89.60;;;;;;5957836;39;20062;-69
2021/07/14 12:29:24;;;;;;;7.80;5.20;;;28.80;88.70;;;;;;5957476;39;20052;-69
2021/07/14 12:33:27;;;;;;;6.43;5.03;;;28.90;86.70;;;;;;5955790;39;20123;-69
2021/07/14 12:37:29;;;;;;;7.15;5.20;;;29.00;89.80;;;;;;5951457;39;20064;-69
2021/07/14 12:41:31;;;;;;;7.00;5.30;;;29.10;89.00;;;;;;5946169;39;20412;-69
2021/07/14 12:45:35;;;;;;;6.10;5.30;;;29.00;88.80;;;;;;5950044;39;20043;-69
2021/07/14 12:49:37;;;;;;;7.60;5.05;;;28.70;90.00;;;;;;5949197;39;20043;-69
2021/07/14 12:53:39;;;;;;;9.30;5.70;;;28.80;89.80;;;;;;5945720;39;20105;-69
2021/07/14 12:57:41;;;;;;;7.47;5.35;;;28.70;90.00;;;;;;5956398;39;20060;-69
2021/07/14 13:01:46;;;;;;;9.68;5.40;;;28.80;89.70;;;;;;5954347;39;20433;-68
2021/07/14 13:05:49;;;;;;;7.32;5.95;;;28.90;89.70;;;;;;5952722;39;20495;-68
2021/07/14 13:09:52;;;;;;;7.18;5.63;;;28.80;89.80;;;;;;5957977;39;20044;-69
2021/07/14 13:13:54;;;;;;;9.65;5.53;;;28.70;90.40;;;;;;5949586;39;20055;-69
2021/07/14 13:18:13;;;;;;;6.05;5.32;;;28.70;90.40;;;;;;5957531;39;20055;-69
2021/07/14 13:22:14;;;;;;;6.20;5.38;;;28.70;88.60;;;;;;5946909;39;20667;-69
2021/07/14 13:26:21;;;;;;;5.68;4.95;;;28.80;90.30;;;;;;5957344;39;20055;-71
2021/07/14 13:30:26;;;;;;;9.15;5.70;;;28.90;89.80;;;;;;5945806;39;20130;-69
2021/07/14 13:34:28;;;;;;;6.88;5.28;;;28.90;90.00;;;;;;5943733;39;20071;-69
2021/07/14 13:38:35;;;;;;;7.25;5.30;;;28.90;90.10;;;;;;5958222;39;20048;-69
2021/07/14 13:42:37;;;;;;;5.53;4.97;;;28.80;90.30;;;;;;5958193;39;20307;-68
2021/07/14 13:46:39;;;;;;;8.25;5.10;;;28.90;89.90;;;;;;5942306;39;20529;-68
2021/07/14 13:50:52;;;;;;;9.80;6.40;;;28.90;89.80;;;;;;5944003;39;20066;-69
2021/07/14 13:55:10;;;;;;;8.45;5.93;;;28.70;87.10;;;;;;5959226;39;20043;-69
2021/07/14 13:59:43;;;;;;;9.77;5.55;;;28.60;86.70;;;;;;5936618;39;20099;-69
2021/07/14 14:03:59;;;;;;;9.50;6.20;;;28.70;85.40;;;;;;5951227;39;20052;-69
2021/07/14 14:08:06;;;;;;;10.40;5.97;;;28.60;85.40;;;;;;5955021;39;20032;-69
2021/07/14 14:12:19;;;;;;;8.05;6.40;;;28.50;87.50;;;;;;5958562;39;20047;-69
2021/07/14 14:16:21;;;;;;;6.93;6.18;;;28.60;87.80;;;;;;5952362;39;20444;-69
2021/07/14 14:20:26;;;;;;;8.13;6.32;;;28.60;88.20;;;;;;5948838;39;20154;-69
2021/07/14 14:24:29;;;;;;;7.57;5.90;;;28.60;88.50;;;;;;5944640;39;20040;-69
2021/07/14 14:28:31;;;;;;;8.80;5.93;;;28.60;86.00;;;;;;5951796;39;20319;-68
2021/07/14 14:32:33;;;;;;;10.43;6.30;;;28.50;86.10;;;;;;5949680;39;20066;-68
2021/07/14 14:36:35;;;;;;;7.07;6.25;;;28.50;86.20;;;;;;5941231;39;20048;-68
2021/07/14 14:40:45;;;;;;;8.43;6.13;;;28.50;86.20;;;;;;5948758;39;20087;-68
2021/07/14 14:44:47;;;;;;;10.00;6.55;;;28.60;86.50;;;;;;5944731;39;20158;-69
2021/07/14 14:48:48;;;;;;;7.57;6.82;;;28.50;86.50;;;;;;5949620;39;20040;-68
2021/07/14 14:52:50;;;;;;;12.32;6.57;;;28.40;87.10;;;;;;5952950;39;20091;-69
2021/07/14 14:56:52;;;;;;;9.45;6.85;;;28.30;86.80;;;;;;5957675;39;20553;-69
2021/07/14 15:00:54;;;;;;;7.65;6.45;;;28.30;87.80;;;;;;5946092;39;20055;-69
2021/07/14 15:04:57;;;;;;;7.95;6.82;;;28.30;88.20;;;;;;5938320;39;20086;-69
2021/07/14 15:08:59;;;;;;;12.55;7.50;;;28.30;87.70;;;;;;5952343;39;20160;-69
2021/07/14 15:13:01;;;;;;;12.90;6.72;;;28.30;87.70;;;;;;5954238;39;20052;-69
2021/07/14 15:17:04;;;;;;;7.88;7.03;;;28.20;87.80;;;;;;5948167;39;20048;-68
2021/07/14 15:21:09;;;;;;;9.35;6.97;;;28.20;88.60;;;;;;5955365;39;21208;-68
2021/07/14 15:25:16;;;;;;;7.78;6.97;;;28.20;88.70;;;;;;5947003;39;20048;-68
2021/07/14 15:29:18;;;;;;;9.48;7.40;;;28.20;88.40;;;;;;5946973;39;20089;-69
2021/07/14 15:33:20;;;;;;;8.75;7.88;;;28.10;88.80;;;;;;5955506;39;20145;-69
2021/07/14 15:37:22;;;;;;;8.95;6.85;;;28.20;89.00;;;;;;5944451;39;20059;-68
2021/07/14 15:41:24;;;;;;;8.93;7.10;;;28.20;88.80;;;;;;5958684;39;20654;-69
2021/07/14 15:45:46;;;;;;;11.02;7.45;;;28.10;88.40;;;;;;5956118;39;20059;-68
2021/07/14 15:49:48;;;;;;;8.63;7.43;;;28.10;89.60;;;;;;5946144;39;20039;-69
2021/07/14 15:53:50;;;;;;;9.25;8.13;;;28.00;90.00;;;;;;5957412;39;20051;-68
2021/07/14 15:57:52;;;;;;;10.68;8.02;;;27.90;90.30;;;;;;5957650;39;20028;-68
2021/07/14 16:01:54;;;;;;;9.90;8.82;;;28.00;90.50;;;;;;5957394;39;20044;-69
2021/07/14 16:06:00;;;;;;;9.70;8.07;;;27.90;90.50;;;;;;5948071;39;20089;-69
2021/07/14 16:10:04;;;;;;;10.90;9.13;;;27.90;90.50;;;;;;5957550;39;20076;-69
2021/07/14 16:14:05;;;;;;;11.93;9.10;;;27.70;90.50;;;;;;5946422;39;21929;-68
2021/07/14 16:18:07;;;;;;;13.23;10.60;;;27.80;90.70;;;;;;5959195;39;20044;-68
2021/07/14 16:22:09;;;;;;;11.25;9.65;;;27.80;90.80;;;;;;5956201;39;20300;-69
2021/07/14 16:26:11;;;;;;;9.32;8.38;;;27.70;91.10;;;;;;5958087;39;20202;-69
2021/07/14 16:30:14;;;;;;;11.23;9.32;;;27.60;91.00;;;;;;5950647;39;20059;-69
2021/07/14 16:34:16;;;;;;;11.85;8.70;;;27.40;90.90;;;;;;5956099;39;20465;-68
2021/07/14 16:38:19;;;;;;;13.98;8.90;;;27.40;90.80;;;;;;5950601;39;20101;-68
2021/07/14 16:42:21;;;;;;;9.65;8.60;;;27.30;90.90;;;;;;5944860;39;20048;-69
2021/07/14 16:46:23;;;;;;;8.18;7.38;;;27.20;91.00;;;;;;5962466;39;20059;-69
2021/07/14 16:50:26;;;;;;;11.88;8.45;;;27.20;90.70;;;;;;5950231;39;20194;-69
2021/07/14 16:54:28;;;;;;;10.00;8.30;;;27.20;90.60;;;;;;5955268;39;20087;-68
2021/07/14 16:58:29;;;;;;;10.15;7.70;;;27.20;90.60;;;;;;5948236;39;20051;-69
2021/07/14 17:02:31;;;;;;;9.05;8.13;;;27.10;90.70;;;;;;5954412;39;20056;-68
2021/07/14 17:06:34;;;;;;;9.82;8.50;;;27.20;90.40;;;;;;5947116;39;20070;-69
2021/07/14 17:10:35;;;;;;;9.88;8.70;;;27.10;90.70;;;;;;5956748;39;20039;-68
2021/07/14 17:14:37;;;;;;;9.73;8.55;;;27.00;90.90;;;;;;5949146;39;20044;-68
2021/07/14 17:18:39;;;;;;;9.82;8.65;;;27.00;91.00;;;;;;5947782;39;20486;-69
2021/07/14 17:22:41;;;;;;;12.27;9.00;;;26.60;90.90;;;;;;5960667;39;20070;-68
2021/07/14 17:26:44;;;;;;;10.27;8.55;;;26.90;91.20;;;;;;5950705;39;20063;-68
2021/07/14 17:30:45;;;;;;;9.50;8.50;;;26.80;91.50;;;;;;5960585;39;20100;-69
2021/07/14 17:34:47;;;;;;;12.73;9.57;;;26.70;91.90;;;;;;5964962;39;20062;-69
2021/07/14 17:38:49;;;;;;;9.82;8.60;;;26.70;92.10;;;;;;5951397;39;20382;-69
2021/07/14 17:42:51;;;;;;;10.63;9.52;;;26.60;92.20;;;;;;5959345;39;20652;-68
2021/07/14 17:46:53;;;;;;;10.63;9.52;;;26.60;92.40;;;;;;5955911;39;20039;-68
2021/07/14 17:50:55;;;;;;;9.77;8.85;;;26.50;92.50;;;;;;5941127;39;20063;-68
2021/07/14 17:55:01;;;;;;;11.20;9.07;;;26.40;92.60;;;;;;5951723;39;20053;-69
2021/07/14 17:59:03;;;;;;;9.88;8.88;;;26.30;92.70;;;;;;5947307;39;20051;-68
2021/07/14 18:03:04;;;;;;;10.10;8.90;;;26.30;92.90;;;;;;5951331;39;20065;-68
2021/07/14 18:07:07;;;;;;;10.95;9.85;;;26.30;92.80;;;;;;5945513;39;20039;-68
2021/07/14 18:11:09;;;;;;;10.73;9.63;;;26.30;92.90;;;;;;5960971;39;20044;-69
2021/07/14 18:15:13;;;;;;;11.18;10.00;;;26.30;92.90;;;;;;5943674;39;20056;-69
2021/07/14 18:19:15;;;;;;;11.20;10.10;;;26.30;92.80;;;;;;5951322;39;20051;-69
2021/07/14 18:23:17;;;;;;;11.80;9.73;;;26.20;92.80;;;;;;5956461;39;20059;-68
2021/07/14 18:27:18;;;;;;;11.23;10.13;;;26.20;93.00;;;;;;5945041;39;20142;-68
2021/07/14 18:31:20;;;;;;;10.65;9.60;;;26.20;93.20;;;;;;5958693;39;20052;-68
2021/07/14 18:35:22;;;;;;;12.90;10.02;;;26.10;93.30;;;;;;5955347;39;20433;-68
2021/07/14 18:39:24;;;;;;;13.38;9.73;;;26.00;93.50;;;;;;5950581;39;20064;-69
2021/07/14 18:43:26;;;;;;;13.23;10.77;;;26.00;93.50;;;;;;5958849;39;20055;-69
2021/07/14 18:47:28;;;;;;;13.43;10.73;;;26.00;93.60;;;;;;5961728;39;20055;-68
2021/07/14 18:51:32;;;;;;;12.45;10.93;;;26.00;93.60;;;;;;5958756;39;20055;-68
2021/07/14 18:55:35;;;;;;;13.10;11.48;;;25.90;93.70;;;;;;5961374;39;20063;-72
2021/07/14 18:59:36;;;;;;;12.85;11.10;;;25.80;93.80;;;;;;5951588;39;20107;-75
2021/07/14 19:03:38;;;;;;;11.82;10.52;;;25.70;94.00;;;;;;5957511;39;20455;-73
2021/07/14 19:07:41;;;;;;;15.60;11.10;;;25.60;94.10;;;;;;5972822;39;20319;-74
2021/07/14 19:11:44;;;;;;;27.58;20.58;;;25.60;94.10;;;;;;5973519;39;20817;-73
2021/07/14 19:15:47;;;;;;;14.63;13.00;;;25.60;94.20;;;;;;5963356;39;20075;-73
2021/07/14 19:19:50;;;;;;;14.40;12.90;;;25.60;94.30;;;;;;5965615;39;20086;-73
2021/07/14 19:23:52;;;;;;;14.95;12.50;;;25.50;94.30;;;;;;5972469;39;20046;-74
2021/07/14 19:27:54;;;;;;;12.57;11.25;;;25.50;94.40;;;;;;5969625;39;20039;-73
2021/07/14 19:31:56;;;;;;;12.27;10.98;;;25.50;94.50;;;;;;5966001;39;20342;-73
2021/07/14 19:35:59;;;;;;;13.88;11.38;;;25.40;94.50;;;;;;5976983;39;20333;-73
2021/07/14 19:40:01;;;;;;;13.00;11.60;;;25.30;94.50;;;;;;5969657;39;20053;-74
2021/07/14 19:44:03;;;;;;;11.93;10.70;;;25.30;94.50;;;;;;5975243;39;20052;-72
2021/07/14 19:48:06;;;;;;;12.75;11.45;;;25.20;94.70;;;;;;5972396;39;20059;-73
2021/07/14 19:52:08;;;;;;;12.90;10.90;;;25.20;94.60;;;;;;5970766;39;20062;-73
2021/07/14 19:56:10;;;;;;;12.45;11.15;;;25.10;94.70;;;;;;5972579;39;20423;-72
2021/07/14 20:00:13;;;;;;;11.98;10.77;;;25.00;94.70;;;;;;5964337;39;20048;-73
2021/07/14 20:04:15;;;;;;;13.25;11.65;;;25.00;94.70;;;;;;5972464;39;20129;-73
2021/07/14 20:08:17;;;;;;;11.73;10.43;;;24.80;94.60;;;;;;5965724;39;20044;-73
2021/07/14 20:12:19;;;;;;;11.45;10.25;;;24.70;94.60;;;;;;5975419;39;20044;-72
2021/07/14 20:16:21;;;;;;;11.25;10.15;;;24.60;94.70;;;;;;5972760;39;20052;-72
2021/07/14 20:20:23;;;;;;;11.68;10.48;;;24.60;94.70;;;;;;5960814;39;20051;-72
2021/07/14 20:24:25;;;;;;;12.23;9.90;;;24.50;94.50;;;;;;5971857;39;20466;-73
2021/07/14 20:28:27;;;;;;;11.77;10.40;;;24.60;94.50;;;;;;5968274;39;20067;-72
2021/07/14 20:32:29;;;;;;;11.00;9.88;;;24.50;94.40;;;;;;5970908;39;20060;-72
2021/07/14 20:36:31;;;;;;;14.48;11.88;;;24.50;94.60;;;;;;5971251;39;20055;-73
2021/07/14 20:40:34;;;;;;;12.35;11.10;;;24.50;94.70;;;;;;5966511;39;20516;-72
2021/07/14 20:44:36;;;;;;;12.63;11.40;;;24.50;94.90;;;;;;5949901;39;20891;-72
2021/07/14 20:48:38;;;;;;;13.00;11.65;;;24.50;95.00;;;;;;5962571;39;20032;-72
2021/07/14 20:52:40;;;;;;;13.23;11.80;;;24.50;95.20;;;;;;5961330;39;20054;-73
2021/07/14 20:56:42;;;;;;;13.82;12.20;;;24.40;95.30;;;;;;5963576;39;20980;-73
2021/07/14 21:00:44;;;;;;;13.57;12.18;;;24.40;95.60;;;;;;5963008;39;20043;-72
2021/07/14 21:04:46;;;;;;;16.45;11.68;;;24.40;95.60;;;;;;5963215;39;20048;-73
2021/07/14 21:08:48;;;;;;;13.27;11.98;;;24.30;95.60;;;;;;5971957;39;20043;-76
2021/07/14 21:12:50;;;;;;;13.75;12.07;;;24.40;95.70;;;;;;5973553;39;20109;-75